sensor_id;sensor_type;location;lat;lon;timestamp;temperature;humidity
10419;DHT22;5256;48.728;9.140;2023-03-08T00:00:22;2.40;99.90
10419;DHT22;5256;48.728;9.140;2023-03-08T00:02:47;2.40;99.90
10419;DHT22;5256;48.728;9.140;2023-03-08T00:05:13;2.40;99.90
10419;DHT22;5256;48.728;9.140;2023-03-08T00:07:38;2.50;99.90
10419;DHT22;5256;48.728;9.140;2023-03-08T00:10:04;2.60;99.90
10419;DHT22;5256;48.728;9.140;2023-03-08T00:12:31;2.60;99.90
10419;DHT22;5256;48.728;9.140;2023-03-08T00:14:56;2.70;99.90
10419;DHT22;5256;48.728;9.140;2023-03-08T00:17:22;2.70;99.90
10419;DHT22;5256;48.728;9.140;2023-03-08T00:19:50;2.70;99.90
10419;DHT22;5256;48.728;9.140;2023-03-08T00:22:15;2.80;99.90
10419;DHT22;5256;48.728;9.140;2023-03-08T00:24:41;2.80;99.90
10419;DHT22;5256;48.728;9.140;2023-03-08T00:27:06;2.80;99.90
10419;DHT22;5256;48.728;9.140;2023-03-08T00:29:32;2.80;99.90
10419;DHT22;5256;48.728;9.140;2023-03-08T00:31:57;2.80;99.90
10419;DHT22;5256;48.728;9.140;2023-03-08T00:34:23;2.80;99.90
10419;DHT22;5256;48.728;9.140;2023-03-08T00:36:49;2.70;99.90
10419;DHT22;5256;48.728;9.140;2023-03-08T00:39:14;2.70;99.90
10419;DHT22;5256;48.728;9.140;2023-03-08T00:41:41;2.70;99.90
10419;DHT22;5256;48.728;9.140;2023-03-08T00:44:07;2.70;99.90
10419;DHT22;5256;48.728;9.140;2023-03-08T00:46:33;2.60;99.90
10419;DHT22;5256;48.728;9.140;2023-03-08T00:48:58;2.60;99.90
10419;DHT22;5256;48.728;9.140;2023-03-08T00:51:24;2.60;99.90
10419;DHT22;5256;48.728;9.140;2023-03-08T00:53:50;2.60;99.90
10419;DHT22;5256;48.728;9.140;2023-03-08T00:56:16;2.50;99.90
10419;DHT22;5256;48.728;9.140;2023-03-08T00:58:42;2.50;99.90
10419;DHT22;5256;48.728;9.140;2023-03-08T01:01:11;2.50;99.90
10419;DHT22;5256;48.728;9.140;2023-03-08T01:03:37;2.40;99.90
10419;DHT22;5256;48.728;9.140;2023-03-08T01:06:08;2.40;99.90
10419;DHT22;5256;48.728;9.140;2023-03-08T01:08:35;2.30;99.90
10419;DHT22;5256;48.728;9.140;2023-03-08T01:11:00;2.30;99.90
10419;DHT22;5256;48.728;9.140;2023-03-08T01:13:29;2.30;99.90
10419;DHT22;5256;48.728;9.140;2023-03-08T01:15:55;2.30;99.90
10419;DHT22;5256;48.728;9.140;2023-03-08T01:18:20;2.30;99.90
10419;DHT22;5256;48.728;9.140;2023-03-08T01:20:59;2.20;99.90
10419;DHT22;5256;48.728;9.140;2023-03-08T01:23:25;2.10;99.90
10419;DHT22;5256;48.728;9.140;2023-03-08T01:26:18;2.10;99.90
10419;DHT22;5256;48.728;9.140;2023-03-08T01:28:44;2.00;99.90
10419;DHT22;5256;48.728;9.140;2023-03-08T01:31:13;2.00;99.90
10419;DHT22;5256;48.728;9.140;2023-03-08T01:33:38;1.90;99.90
10419;DHT22;5256;48.728;9.140;2023-03-08T01:36:05;1.80;99.90
10419;DHT22;5256;48.728;9.140;2023-03-08T01:38:31;1.80;99.90
10419;DHT22;5256;48.728;9.140;2023-03-08T01:40:59;1.70;99.90
10419;DHT22;5256;48.728;9.140;2023-03-08T01:43:30;1.60;99.90
10419;DHT22;5256;48.728;9.140;2023-03-08T01:46:22;1.60;99.90
10419;DHT22;5256;48.728;9.140;2023-03-08T01:54:19;1.30;99.90
10419;DHT22;5256;48.728;9.140;2023-03-08T01:56:48;1.20;99.90
10419;DHT22;5256;48.728;9.140;2023-03-08T01:59:15;1.20;99.90
10419;DHT22;5256;48.728;9.140;2023-03-08T02:01:41;1.10;99.90
10419;DHT22;5256;48.728;9.140;2023-03-08T02:04:07;1.10;99.90
10419;DHT22;5256;48.728;9.140;2023-03-08T02:06:33;1.00;99.90
10419;DHT22;5256;48.728;9.140;2023-03-08T02:08:59;1.00;99.90
10419;DHT22;5256;48.728;9.140;2023-03-08T02:11:29;1.00;99.90
10419;DHT22;5256;48.728;9.140;2023-03-08T02:13:56;0.90;99.90
10419;DHT22;5256;48.728;9.140;2023-03-08T02:16:22;1.00;99.90
10419;DHT22;5256;48.728;9.140;2023-03-08T02:18:53;0.90;99.90
10419;DHT22;5256;48.728;9.140;2023-03-08T02:21:19;1.00;99.90
10419;DHT22;5256;48.728;9.140;2023-03-08T02:23:45;1.00;99.90
10419;DHT22;5256;48.728;9.140;2023-03-08T02:26:11;1.10;99.90
10419;DHT22;5256;48.728;9.140;2023-03-08T02:28:36;1.20;99.90
10419;DHT22;5256;48.728;9.140;2023-03-08T02:31:03;1.20;99.90
10419;DHT22;5256;48.728;9.140;2023-03-08T02:33:28;1.30;99.90
10419;DHT22;5256;48.728;9.140;2023-03-08T02:35:56;1.20;99.90
10419;DHT22;5256;48.728;9.140;2023-03-08T02:38:22;1.20;99.90
10419;DHT22;5256;48.728;9.140;2023-03-08T02:40:48;1.30;99.90
10419;DHT22;5256;48.728;9.140;2023-03-08T02:43:16;1.40;99.90
10419;DHT22;5256;48.728;9.140;2023-03-08T02:45:42;1.40;99.90
10419;DHT22;5256;48.728;9.140;2023-03-08T02:48:08;1.40;99.90
10419;DHT22;5256;48.728;9.140;2023-03-08T02:50:33;1.40;99.90
10419;DHT22;5256;48.728;9.140;2023-03-08T02:53:01;1.40;99.90
10419;DHT22;5256;48.728;9.140;2023-03-08T02:55:26;1.50;99.90
10419;DHT22;5256;48.728;9.140;2023-03-08T02:57:52;1.50;99.90
10419;DHT22;5256;48.728;9.140;2023-03-08T03:00:18;1.50;99.90
10419;DHT22;5256;48.728;9.140;2023-03-08T03:02:43;1.60;99.90
10419;DHT22;5256;48.728;9.140;2023-03-08T03:05:10;1.60;99.90
10419;DHT22;5256;48.728;9.140;2023-03-08T03:07:40;1.60;99.90
10419;DHT22;5256;48.728;9.140;2023-03-08T03:10:07;1.60;99.90
10419;DHT22;5256;48.728;9.140;2023-03-08T03:12:33;1.60;99.90
10419;DHT22;5256;48.728;9.140;2023-03-08T03:15:04;1.60;99.90
10419;DHT22;5256;48.728;9.140;2023-03-08T03:17:31;1.60;99.90
10419;DHT22;5256;48.728;9.140;2023-03-08T03:19:56;1.60;99.90
10419;DHT22;5256;48.728;9.140;2023-03-08T03:22:22;1.60;99.90
10419;DHT22;5256;48.728;9.140;2023-03-08T03:24:49;1.60;99.90
10419;DHT22;5256;48.728;9.140;2023-03-08T03:27:15;1.70;99.90
10419;DHT22;5256;48.728;9.140;2023-03-08T03:29:41;1.60;99.90
10419;DHT22;5256;48.728;9.140;2023-03-08T03:32:06;1.60;99.90
10419;DHT22;5256;48.728;9.140;2023-03-08T03:34:32;1.50;99.90
10419;DHT22;5256;48.728;9.140;2023-03-08T03:36:58;1.50;99.90
10419;DHT22;5256;48.728;9.140;2023-03-08T03:39:23;1.60;99.90
10419;DHT22;5256;48.728;9.140;2023-03-08T03:41:49;1.50;99.90
10419;DHT22;5256;48.728;9.140;2023-03-08T03:44:15;1.50;99.90
10419;DHT22;5256;48.728;9.140;2023-03-08T03:46:40;1.50;99.90
10419;DHT22;5256;48.728;9.140;2023-03-08T03:49:06;1.40;99.90
10419;DHT22;5256;48.728;9.140;2023-03-08T03:51:31;1.30;99.90
10419;DHT22;5256;48.728;9.140;2023-03-08T03:53:57;1.30;99.90
10419;DHT22;5256;48.728;9.140;2023-03-08T03:56:24;1.30;99.90
10419;DHT22;5256;48.728;9.140;2023-03-08T03:58:50;1.20;99.90
10419;DHT22;5256;48.728;9.140;2023-03-08T04:01:25;1.20;99.90
10419;DHT22;5256;48.728;9.140;2023-03-08T04:03:52;1.20;99.90
10419;DHT22;5256;48.728;9.140;2023-03-08T04:06:36;1.20;99.90
10419;DHT22;5256;48.728;9.140;2023-03-08T04:09:04;1.20;99.90
10419;DHT22;5256;48.728;9.140;2023-03-08T04:11:35;1.20;99.90
10419;DHT22;5256;48.728;9.140;2023-03-08T04:14:02;1.30;99.90
10419;DHT22;5256;48.728;9.140;2023-03-08T04:16:30;1.30;99.90
10419;DHT22;5256;48.728;9.140;2023-03-08T04:19:02;1.30;99.90
10419;DHT22;5256;48.728;9.140;2023-03-08T04:21:28;1.40;99.90
10419;DHT22;5256;48.728;9.140;2023-03-08T04:23:54;1.40;99.90
10419;DHT22;5256;48.728;9.140;2023-03-08T04:26:20;1.30;99.90
10419;DHT22;5256;48.728;9.140;2023-03-08T04:28:46;1.30;99.90
10419;DHT22;5256;48.728;9.140;2023-03-08T04:31:13;1.30;99.90
10419;DHT22;5256;48.728;9.140;2023-03-08T04:33:39;1.40;99.90
10419;DHT22;5256;48.728;9.140;2023-03-08T04:36:05;1.50;99.90
10419;DHT22;5256;48.728;9.140;2023-03-08T04:38:31;1.60;99.90
10419;DHT22;5256;48.728;9.140;2023-03-08T04:40:58;1.60;99.90
10419;DHT22;5256;48.728;9.140;2023-03-08T04:43:30;1.60;99.90
10419;DHT22;5256;48.728;9.140;2023-03-08T04:45:56;1.60;99.90
10419;DHT22;5256;48.728;9.140;2023-03-08T04:48:22;1.60;99.90
10419;DHT22;5256;48.728;9.140;2023-03-08T04:50:55;1.70;99.90
10419;DHT22;5256;48.728;9.140;2023-03-08T04:53:21;1.70;99.90
10419;DHT22;5256;48.728;9.140;2023-03-08T04:55:47;1.70;99.90
10419;DHT22;5256;48.728;9.140;2023-03-08T04:58:13;1.80;99.90
10419;DHT22;5256;48.728;9.140;2023-03-08T05:00:39;1.90;99.90
10419;DHT22;5256;48.728;9.140;2023-03-08T05:03:04;1.90;99.90
10419;DHT22;5256;48.728;9.140;2023-03-08T05:05:30;1.80;99.90
10419;DHT22;5256;48.728;9.140;2023-03-08T05:07:56;1.80;99.90
10419;DHT22;5256;48.728;9.140;2023-03-08T05:10:24;1.80;99.90
10419;DHT22;5256;48.728;9.140;2023-03-08T05:12:53;1.80;99.90
10419;DHT22;5256;48.728;9.140;2023-03-08T05:15:18;1.80;99.90
10419;DHT22;5256;48.728;9.140;2023-03-08T05:17:44;1.80;99.90
10419;DHT22;5256;48.728;9.140;2023-03-08T05:20:10;1.80;99.90
10419;DHT22;5256;48.728;9.140;2023-03-08T05:22:35;1.80;99.90
10419;DHT22;5256;48.728;9.140;2023-03-08T05:25:01;1.80;99.90
10419;DHT22;5256;48.728;9.140;2023-03-08T05:27:30;1.90;99.90
10419;DHT22;5256;48.728;9.140;2023-03-08T05:29:55;1.90;99.90
10419;DHT22;5256;48.728;9.140;2023-03-08T05:32:21;2.00;99.90
10419;DHT22;5256;48.728;9.140;2023-03-08T05:34:47;1.90;99.90
10419;DHT22;5256;48.728;9.140;2023-03-08T05:37:12;2.00;99.90
10419;DHT22;5256;48.728;9.140;2023-03-08T05:39:38;1.90;99.90
10419;DHT22;5256;48.728;9.140;2023-03-08T05:42:03;1.90;99.90
10419;DHT22;5256;48.728;9.140;2023-03-08T05:44:29;1.90;99.90
10419;DHT22;5256;48.728;9.140;2023-03-08T05:46:54;1.90;99.90
10419;DHT22;5256;48.728;9.140;2023-03-08T05:49:20;1.90;99.90
10419;DHT22;5256;48.728;9.140;2023-03-08T05:51:45;1.90;99.90
10419;DHT22;5256;48.728;9.140;2023-03-08T05:54:11;2.00;99.90
10419;DHT22;5256;48.728;9.140;2023-03-08T05:56:36;2.00;99.90
10419;DHT22;5256;48.728;9.140;2023-03-08T05:59:02;2.00;99.90
10419;DHT22;5256;48.728;9.140;2023-03-08T06:01:28;2.10;99.90
10419;DHT22;5256;48.728;9.140;2023-03-08T06:03:56;2.00;99.90
10419;DHT22;5256;48.728;9.140;2023-03-08T06:06:24;2.10;99.90
10419;DHT22;5256;48.728;9.140;2023-03-08T06:08:49;2.10;99.90
10419;DHT22;5256;48.728;9.140;2023-03-08T06:11:17;2.10;99.90
10419;DHT22;5256;48.728;9.140;2023-03-08T06:13:43;2.10;99.90
10419;DHT22;5256;48.728;9.140;2023-03-08T06:16:09;2.20;99.90
10419;DHT22;5256;48.728;9.140;2023-03-08T06:18:37;2.20;99.90
10419;DHT22;5256;48.728;9.140;2023-03-08T06:21:13;2.20;99.90
10419;DHT22;5256;48.728;9.140;2023-03-08T06:23:39;2.30;99.90
10419;DHT22;5256;48.728;9.140;2023-03-08T06:26:05;2.30;99.90
10419;DHT22;5256;48.728;9.140;2023-03-08T06:28:32;2.30;99.90
10419;DHT22;5256;48.728;9.140;2023-03-08T06:30:58;2.30;99.90
10419;DHT22;5256;48.728;9.140;2023-03-08T06:33:29;2.50;99.90
10419;DHT22;5256;48.728;9.140;2023-03-08T06:38:21;2.50;99.90
10419;DHT22;5256;48.728;9.140;2023-03-08T06:40:47;2.50;99.90
10419;DHT22;5256;48.728;9.140;2023-03-08T06:43:12;2.60;99.90
10419;DHT22;5256;48.728;9.140;2023-03-08T06:45:38;2.60;99.90
10419;DHT22;5256;48.728;9.140;2023-03-08T06:48:04;2.70;99.90
10419;DHT22;5256;48.728;9.140;2023-03-08T06:50:29;2.70;99.90
10419;DHT22;5256;48.728;9.140;2023-03-08T06:52:55;2.70;99.90
10419;DHT22;5256;48.728;9.140;2023-03-08T06:55:20;2.80;99.90
10419;DHT22;5256;48.728;9.140;2023-03-08T06:57:46;2.80;99.90
10419;DHT22;5256;48.728;9.140;2023-03-08T07:00:12;2.90;99.90
10419;DHT22;5256;48.728;9.140;2023-03-08T07:02:38;2.90;99.90
10419;DHT22;5256;48.728;9.140;2023-03-08T07:05:04;3.00;99.90
10419;DHT22;5256;48.728;9.140;2023-03-08T07:07:29;3.10;99.90
10419;DHT22;5256;48.728;9.140;2023-03-08T07:09:55;3.20;99.90
10419;DHT22;5256;48.728;9.140;2023-03-08T07:12:22;3.20;99.90
10419;DHT22;5256;48.728;9.140;2023-03-08T07:14:47;3.20;99.90
10419;DHT22;5256;48.728;9.140;2023-03-08T07:17:13;3.20;99.90
10419;DHT22;5256;48.728;9.140;2023-03-08T07:19:39;3.30;99.90
10419;DHT22;5256;48.728;9.140;2023-03-08T07:22:04;3.30;99.90
10419;DHT22;5256;48.728;9.140;2023-03-08T07:24:30;3.30;99.90
10419;DHT22;5256;48.728;9.140;2023-03-08T07:26:55;3.30;99.90
10419;DHT22;5256;48.728;9.140;2023-03-08T07:29:21;3.40;99.90
10419;DHT22;5256;48.728;9.140;2023-03-08T07:31:46;3.40;99.90
10419;DHT22;5256;48.728;9.140;2023-03-08T07:34:12;3.60;99.90
10419;DHT22;5256;48.728;9.140;2023-03-08T07:36:37;3.60;99.90
10419;DHT22;5256;48.728;9.140;2023-03-08T07:39:04;3.70;99.90
10419;DHT22;5256;48.728;9.140;2023-03-08T07:41:30;3.70;99.90
10419;DHT22;5256;48.728;9.140;2023-03-08T07:43:57;3.70;99.90
10419;DHT22;5256;48.728;9.140;2023-03-08T07:46:23;3.70;99.90
10419;DHT22;5256;48.728;9.140;2023-03-08T07:48:50;3.80;99.90
10419;DHT22;5256;48.728;9.140;2023-03-08T07:51:15;3.80;99.90
10419;DHT22;5256;48.728;9.140;2023-03-08T07:53:41;3.80;99.90
10419;DHT22;5256;48.728;9.140;2023-03-08T07:56:07;3.90;99.90
10419;DHT22;5256;48.728;9.140;2023-03-08T07:58:33;3.80;99.90
10419;DHT22;5256;48.728;9.140;2023-03-08T08:00:58;3.90;99.90
10419;DHT22;5256;48.728;9.140;2023-03-08T08:03:24;4.00;99.90
10419;DHT22;5256;48.728;9.140;2023-03-08T08:05:49;4.10;99.90
10419;DHT22;5256;48.728;9.140;2023-03-08T08:08:15;4.10;99.90
10419;DHT22;5256;48.728;9.140;2023-03-08T08:10:41;4.10;99.90
10419;DHT22;5256;48.728;9.140;2023-03-08T08:13:07;4.10;99.90
10419;DHT22;5256;48.728;9.140;2023-03-08T08:15:32;4.10;99.90
10419;DHT22;5256;48.728;9.140;2023-03-08T08:17:58;4.10;99.90
10419;DHT22;5256;48.728;9.140;2023-03-08T08:20:25;4.20;99.90
10419;DHT22;5256;48.728;9.140;2023-03-08T08:22:52;4.20;99.90
10419;DHT22;5256;48.728;9.140;2023-03-08T08:25:18;4.20;99.90
10419;DHT22;5256;48.728;9.140;2023-03-08T08:27:44;4.20;99.90
10419;DHT22;5256;48.728;9.140;2023-03-08T08:30:12;4.00;99.90
10419;DHT22;5256;48.728;9.140;2023-03-08T08:32:38;4.00;99.90
10419;DHT22;5256;48.728;9.140;2023-03-08T08:35:04;3.90;99.90
10419;DHT22;5256;48.728;9.140;2023-03-08T08:37:31;3.90;99.90
10419;DHT22;5256;48.728;9.140;2023-03-08T08:39:57;4.00;99.90
10419;DHT22;5256;48.728;9.140;2023-03-08T08:42:23;4.00;99.90
10419;DHT22;5256;48.728;9.140;2023-03-08T08:44:48;4.10;99.90
10419;DHT22;5256;48.728;9.140;2023-03-08T08:47:14;4.20;99.90
10419;DHT22;5256;48.728;9.140;2023-03-08T08:49:40;4.20;99.90
10419;DHT22;5256;48.728;9.140;2023-03-08T08:52:06;4.20;99.90
10419;DHT22;5256;48.728;9.140;2023-03-08T08:54:31;4.20;99.90
10419;DHT22;5256;48.728;9.140;2023-03-08T08:56:58;4.30;99.90
10419;DHT22;5256;48.728;9.140;2023-03-08T08:59:24;4.30;99.90
10419;DHT22;5256;48.728;9.140;2023-03-08T09:01:49;4.40;99.90
10419;DHT22;5256;48.728;9.140;2023-03-08T09:04:15;4.40;99.90
10419;DHT22;5256;48.728;9.140;2023-03-08T09:06:41;4.40;99.90
10419;DHT22;5256;48.728;9.140;2023-03-08T09:09:07;4.50;99.90
10419;DHT22;5256;48.728;9.140;2023-03-08T09:11:33;4.50;99.90
10419;DHT22;5256;48.728;9.140;2023-03-08T09:13:59;4.50;99.90
10419;DHT22;5256;48.728;9.140;2023-03-08T09:16:27;4.50;99.90
10419;DHT22;5256;48.728;9.140;2023-03-08T09:18:54;4.50;99.90
10419;DHT22;5256;48.728;9.140;2023-03-08T09:21:21;4.50;99.90
10419;DHT22;5256;48.728;9.140;2023-03-08T09:23:47;4.50;99.90
10419;DHT22;5256;48.728;9.140;2023-03-08T09:26:13;4.50;99.90
10419;DHT22;5256;48.728;9.140;2023-03-08T09:28:38;4.50;99.90
10419;DHT22;5256;48.728;9.140;2023-03-08T09:31:07;4.60;99.90
10419;DHT22;5256;48.728;9.140;2023-03-08T09:33:37;4.60;99.90
10419;DHT22;5256;48.728;9.140;2023-03-08T09:36:03;4.70;99.90
10419;DHT22;5256;48.728;9.140;2023-03-08T09:38:29;4.70;99.90
10419;DHT22;5256;48.728;9.140;2023-03-08T09:43:53;4.90;99.90
10419;DHT22;5256;48.728;9.140;2023-03-08T09:46:29;5.00;99.90
10419;DHT22;5256;48.728;9.140;2023-03-08T09:48:57;5.20;99.90
10419;DHT22;5256;48.728;9.140;2023-03-08T09:51:30;5.30;99.90
10419;DHT22;5256;48.728;9.140;2023-03-08T09:54:02;5.50;99.90
10419;DHT22;5256;48.728;9.140;2023-03-08T09:56:37;5.70;99.90
10419;DHT22;5256;48.728;9.140;2023-03-08T09:59:20;5.80;99.90
10419;DHT22;5256;48.728;9.140;2023-03-08T10:02:01;5.90;99.90
10419;DHT22;5256;48.728;9.140;2023-03-08T10:10:40;6.40;99.90
10419;DHT22;5256;48.728;9.140;2023-03-08T10:13:30;6.70;99.90
10419;DHT22;5256;48.728;9.140;2023-03-08T10:16:10;7.00;99.90
10419;DHT22;5256;48.728;9.140;2023-03-08T10:21:15;7.10;99.90
10419;DHT22;5256;48.728;9.140;2023-03-08T10:23:52;7.10;99.90
10419;DHT22;5256;48.728;9.140;2023-03-08T10:26:24;7.10;99.90
10419;DHT22;5256;48.728;9.140;2023-03-08T10:28:50;7.20;99.90
10419;DHT22;5256;48.728;9.140;2023-03-08T10:31:22;7.20;99.90
10419;DHT22;5256;48.728;9.140;2023-03-08T10:33:51;7.20;99.90
10419;DHT22;5256;48.728;9.140;2023-03-08T10:36:23;7.20;99.90
10419;DHT22;5256;48.728;9.140;2023-03-08T10:38:58;7.20;99.90
10419;DHT22;5256;48.728;9.140;2023-03-08T10:41:24;7.40;99.90
10419;DHT22;5256;48.728;9.140;2023-03-08T10:43:53;7.50;99.90
10419;DHT22;5256;48.728;9.140;2023-03-08T10:46:25;7.70;99.90
10419;DHT22;5256;48.728;9.140;2023-03-08T10:48:51;7.80;99.90
10419;DHT22;5256;48.728;9.140;2023-03-08T10:51:25;8.20;99.90
10419;DHT22;5256;48.728;9.140;2023-03-08T10:54:02;8.60;99.90
10419;DHT22;5256;48.728;9.140;2023-03-08T10:59:04;8.70;99.90
10419;DHT22;5256;48.728;9.140;2023-03-08T11:01:32;8.80;99.90
10419;DHT22;5256;48.728;9.140;2023-03-08T11:04:12;8.80;99.90
10419;DHT22;5256;48.728;9.140;2023-03-08T11:06:38;8.90;99.90
10419;DHT22;5256;48.728;9.140;2023-03-08T11:09:17;9.00;99.90
10419;DHT22;5256;48.728;9.140;2023-03-08T11:11:43;9.00;99.90
10419;DHT22;5256;48.728;9.140;2023-03-08T11:14:10;9.00;99.90
10419;DHT22;5256;48.728;9.140;2023-03-08T11:19:38;9.20;99.90
10419;DHT22;5256;48.728;9.140;2023-03-08T11:22:28;9.40;99.90
10419;DHT22;5256;48.728;9.140;2023-03-08T11:30:38;9.40;99.90
10419;DHT22;5256;48.728;9.140;2023-03-08T11:33:21;9.40;99.90
10419;DHT22;5256;48.728;9.140;2023-03-08T11:38:31;9.40;99.90
10419;DHT22;5256;48.728;9.140;2023-03-08T11:41:59;9.40;99.90
10419;DHT22;5256;48.728;9.140;2023-03-08T12:00:52;9.90;99.90
10419;DHT22;5256;48.728;9.140;2023-03-08T12:05:53;9.80;99.90
10419;DHT22;5256;48.728;9.140;2023-03-08T12:10:59;9.90;99.90
10419;DHT22;5256;48.728;9.140;2023-03-08T12:13:38;9.80;99.90
10419;DHT22;5256;48.728;9.140;2023-03-08T12:19:18;9.90;99.90
10419;DHT22;5256;48.728;9.140;2023-03-08T12:22:07;10.10;99.90
10419;DHT22;5256;48.728;9.140;2023-03-08T12:24:51;10.30;99.90
10419;DHT22;5256;48.728;9.140;2023-03-08T12:27:59;10.40;99.90
10419;DHT22;5256;48.728;9.140;2023-03-08T12:32:54;10.30;99.90
10419;DHT22;5256;48.728;9.140;2023-03-08T12:38:23;10.20;99.90
10419;DHT22;5256;48.728;9.140;2023-03-08T12:40:52;10.30;99.90
10419;DHT22;5256;48.728;9.140;2023-03-08T12:48:27;11.10;99.90
10419;DHT22;5256;48.728;9.140;2023-03-08T12:53:40;11.40;99.90
10419;DHT22;5256;48.728;9.140;2023-03-08T12:58:46;11.30;99.90
10419;DHT22;5256;48.728;9.140;2023-03-08T13:01:57;11.20;99.90
10419;DHT22;5256;48.728;9.140;2023-03-08T13:04:32;11.20;99.90
10419;DHT22;5256;48.728;9.140;2023-03-08T13:07:18;11.20;99.90
10419;DHT22;5256;48.728;9.140;2023-03-08T13:12:35;11.20;99.90
10419;DHT22;5256;48.728;9.140;2023-03-08T13:17:48;11.40;99.90
10419;DHT22;5256;48.728;9.140;2023-03-08T13:20:21;11.70;99.90
10419;DHT22;5256;48.728;9.140;2023-03-08T13:26:11;11.50;99.90
10419;DHT22;5256;48.728;9.140;2023-03-08T13:28:41;11.20;99.90
10419;DHT22;5256;48.728;9.140;2023-03-08T13:31:15;11.10;99.90
10419;DHT22;5256;48.728;9.140;2023-03-08T13:33:59;11.00;99.90
10419;DHT22;5256;48.728;9.140;2023-03-08T13:36:32;10.90;99.90
10419;DHT22;5256;48.728;9.140;2023-03-08T13:39:03;11.00;99.90
10419;DHT22;5256;48.728;9.140;2023-03-08T13:41:37;11.10;99.90
10419;DHT22;5256;48.728;9.140;2023-03-08T13:44:13;11.30;99.90
10419;DHT22;5256;48.728;9.140;2023-03-08T13:46:40;11.40;99.90
10419;DHT22;5256;48.728;9.140;2023-03-08T13:49:26;11.30;99.90
10419;DHT22;5256;48.728;9.140;2023-03-08T13:51:55;11.30;99.90
10419;DHT22;5256;48.728;9.140;2023-03-08T13:54:31;11.40;99.90
10419;DHT22;5256;48.728;9.140;2023-03-08T13:57:00;11.50;99.90
10419;DHT22;5256;48.728;9.140;2023-03-08T13:59:27;11.70;99.90
10419;DHT22;5256;48.728;9.140;2023-03-08T14:01:53;11.90;99.90
10419;DHT22;5256;48.728;9.140;2023-03-08T14:04:25;12.10;99.90
10419;DHT22;5256;48.728;9.140;2023-03-08T14:06:59;12.40;99.90
10419;DHT22;5256;48.728;9.140;2023-03-08T14:09:25;12.40;99.90
10419;DHT22;5256;48.728;9.140;2023-03-08T14:12:01;12.40;99.90
10419;DHT22;5256;48.728;9.140;2023-03-08T14:14:36;12.40;99.90
10419;DHT22;5256;48.728;9.140;2023-03-08T14:17:02;12.50;99.90
10419;DHT22;5256;48.728;9.140;2023-03-08T14:19:33;12.30;99.90
10419;DHT22;5256;48.728;9.140;2023-03-08T14:22:02;12.20;99.90
10419;DHT22;5256;48.728;9.140;2023-03-08T14:24:31;12.00;99.90
10419;DHT22;5256;48.728;9.140;2023-03-08T14:27:00;11.90;99.90
10419;DHT22;5256;48.728;9.140;2023-03-08T14:29:30;11.90;99.90
10419;DHT22;5256;48.728;9.140;2023-03-08T14:34:39;11.90;99.90
10419;DHT22;5256;48.728;9.140;2023-03-08T14:39:46;11.80;99.90
10419;DHT22;5256;48.728;9.140;2023-03-08T14:42:26;11.80;99.90
10419;DHT22;5256;48.728;9.140;2023-03-08T14:45:00;11.70;99.90
10419;DHT22;5256;48.728;9.140;2023-03-08T14:47:31;11.70;99.90
10419;DHT22;5256;48.728;9.140;2023-03-08T14:52:34;11.80;99.90
10419;DHT22;5256;48.728;9.140;2023-03-08T14:55:17;11.80;99.90
10419;DHT22;5256;48.728;9.140;2023-03-08T14:57:43;11.70;99.90
10419;DHT22;5256;48.728;9.140;2023-03-08T15:00:13;11.50;99.90
10419;DHT22;5256;48.728;9.140;2023-03-08T15:02:40;11.30;99.90
10419;DHT22;5256;48.728;9.140;2023-03-08T15:05:15;11.30;99.90
10419;DHT22;5256;48.728;9.140;2023-03-08T15:07:42;11.30;99.90
10419;DHT22;5256;48.728;9.140;2023-03-08T15:10:21;11.40;99.90
10419;DHT22;5256;48.728;9.140;2023-03-08T15:12:48;11.40;99.90
10419;DHT22;5256;48.728;9.140;2023-03-08T15:15:14;11.50;99.90
10419;DHT22;5256;48.728;9.140;2023-03-08T15:17:40;11.40;99.90
10419;DHT22;5256;48.728;9.140;2023-03-08T15:20:06;11.30;99.90
10419;DHT22;5256;48.728;9.140;2023-03-08T15:22:42;11.30;99.90
10419;DHT22;5256;48.728;9.140;2023-03-08T15:25:13;11.40;99.90
10419;DHT22;5256;48.728;9.140;2023-03-08T15:27:38;11.40;99.90
10419;DHT22;5256;48.728;9.140;2023-03-08T15:30:04;11.40;99.90
10419;DHT22;5256;48.728;9.140;2023-03-08T15:32:30;11.40;99.90
10419;DHT22;5256;48.728;9.140;2023-03-08T15:34:56;11.20;99.90
10419;DHT22;5256;48.728;9.140;2023-03-08T15:37:21;11.10;99.90
10419;DHT22;5256;48.728;9.140;2023-03-08T15:39:47;11.10;99.90
10419;DHT22;5256;48.728;9.140;2023-03-08T15:42:12;11.10;99.90
10419;DHT22;5256;48.728;9.140;2023-03-08T15:44:38;11.10;99.90
10419;DHT22;5256;48.728;9.140;2023-03-08T15:47:03;11.10;99.90
10419;DHT22;5256;48.728;9.140;2023-03-08T15:49:29;11.20;99.90
10419;DHT22;5256;48.728;9.140;2023-03-08T15:51:54;11.10;99.90
10419;DHT22;5256;48.728;9.140;2023-03-08T15:54:20;11.10;99.90
10419;DHT22;5256;48.728;9.140;2023-03-08T15:56:45;11.10;99.90
10419;DHT22;5256;48.728;9.140;2023-03-08T15:59:11;11.10;99.90
10419;DHT22;5256;48.728;9.140;2023-03-08T16:01:36;11.10;99.90
10419;DHT22;5256;48.728;9.140;2023-03-08T16:04:02;11.20;99.90
10419;DHT22;5256;48.728;9.140;2023-03-08T16:06:27;11.20;99.90
10419;DHT22;5256;48.728;9.140;2023-03-08T16:08:53;11.20;99.90
10419;DHT22;5256;48.728;9.140;2023-03-08T16:11:19;11.30;99.90
10419;DHT22;5256;48.728;9.140;2023-03-08T16:13:49;11.30;99.90
10419;DHT22;5256;48.728;9.140;2023-03-08T16:16:15;11.30;99.90
10419;DHT22;5256;48.728;9.140;2023-03-08T16:18:41;11.30;99.90
10419;DHT22;5256;48.728;9.140;2023-03-08T16:21:08;11.30;99.90
10419;DHT22;5256;48.728;9.140;2023-03-08T16:23:34;11.20;99.90
10419;DHT22;5256;48.728;9.140;2023-03-08T16:28:27;10.80;99.90
10419;DHT22;5256;48.728;9.140;2023-03-08T16:30:53;10.70;99.90
10419;DHT22;5256;48.728;9.140;2023-03-08T16:33:19;10.70;99.90
10419;DHT22;5256;48.728;9.140;2023-03-08T16:35:49;10.70;99.90
10419;DHT22;5256;48.728;9.140;2023-03-08T16:38:15;10.70;99.90
10419;DHT22;5256;48.728;9.140;2023-03-08T16:40:40;10.70;99.90
10419;DHT22;5256;48.728;9.140;2023-03-08T16:43:06;10.60;99.90
10419;DHT22;5256;48.728;9.140;2023-03-08T16:45:33;10.60;99.90
10419;DHT22;5256;48.728;9.140;2023-03-08T16:47:59;10.50;99.90
10419;DHT22;5256;48.728;9.140;2023-03-08T16:50:24;10.30;99.90
10419;DHT22;5256;48.728;9.140;2023-03-08T16:52:54;10.10;99.90
10419;DHT22;5256;48.728;9.140;2023-03-08T16:55:20;9.90;99.90
10419;DHT22;5256;48.728;9.140;2023-03-08T16:57:46;9.90;99.90
10419;DHT22;5256;48.728;9.140;2023-03-08T17:00:13;9.80;99.90
10419;DHT22;5256;48.728;9.140;2023-03-08T17:02:39;9.80;99.90
10419;DHT22;5256;48.728;9.140;2023-03-08T17:05:05;9.80;99.90
10419;DHT22;5256;48.728;9.140;2023-03-08T17:07:31;9.80;99.90
10419;DHT22;5256;48.728;9.140;2023-03-08T17:09:57;9.80;99.90
10419;DHT22;5256;48.728;9.140;2023-03-08T17:12:23;9.80;99.90
10419;DHT22;5256;48.728;9.140;2023-03-08T17:14:50;9.90;99.90
10419;DHT22;5256;48.728;9.140;2023-03-08T17:17:16;9.90;99.90
10419;DHT22;5256;48.728;9.140;2023-03-08T17:19:43;9.90;99.90
10419;DHT22;5256;48.728;9.140;2023-03-08T17:22:11;9.90;99.90
10419;DHT22;5256;48.728;9.140;2023-03-08T17:24:37;10.00;99.90
10419;DHT22;5256;48.728;9.140;2023-03-08T17:27:02;10.00;99.90
10419;DHT22;5256;48.728;9.140;2023-03-08T17:29:28;10.00;99.90
10419;DHT22;5256;48.728;9.140;2023-03-08T17:31:54;9.90;99.90
10419;DHT22;5256;48.728;9.140;2023-03-08T17:34:20;9.90;99.90
10419;DHT22;5256;48.728;9.140;2023-03-08T17:36:48;9.90;99.90